| time (UTC) | temp C | wind direction | speed KPH | gust KPH | rain 1hr cm | rain 24hr cm | rain mn cm | humidity % | barometer mb |
| 20260509124154 | 12 | 277 | 3.2 | 4.8 | 0.00 | 0.00 | 0.00 | 83 | 1004.0 |
| 20260509123652 | 12 | 266 | 4.8 | 8.0 | 0.00 | 0.00 | 0.00 | 84 | 1003.9 |
| 20260509123149 | 12 | 240 | 3.2 | 3.2 | 0.00 | 0.00 | 0.00 | 85 | 1003.8 |
| 20260509122644 | 12 | 228 | 4.8 | 4.8 | 0.00 | 0.00 | 0.00 | 85 | 1003.6 |
| 20260509122141 | 12 | 229 | 8.0 | 9.7 | 0.00 | 0.00 | 0.00 | 86 | 1004.0 |
| 20260509121638 | 12 | 233 | 8.0 | 9.7 | 0.00 | 0.00 | 0.00 | 86 | 1003.5 |
| 20260509121136 | 12 | 189 | 6.4 | 11.3 | 0.00 | 0.00 | 0.00 | 86 | 1003.8 |
| 20260509120634 | 12 | 245 | 6.4 | 11.3 | 0.00 | 0.00 | 0.00 | 87 | 1003.9 |
| 20260509120132 | 12 | 253 | 6.4 | 11.3 | 0.00 | 0.00 | 0.00 | 87 | 1003.7 |
| 20260509115629 | 11 | 210 | 4.8 | 9.7 | 0.00 | 0.00 | 0.00 | 87 | 1003.8 |
| 20260509115127 | 11 | 184 | 6.4 | 9.7 | 0.00 | 0.00 | 0.00 | 87 | 1003.7 |
| 20260509114624 | 11 | 259 | 6.4 | 8.0 | 0.00 | 0.00 | 0.00 | 88 | 1003.7 |
| 20260509114123 | 11 | 230 | 4.8 | 8.0 | 0.00 | 0.00 | 0.00 | 88 | 1004.0 |
| 20260509113621 | 11 | 251 | 3.2 | 3.2 | 0.00 | 0.00 | 0.00 | 88 | 1003.8 |
| 20260509113118 | 11 | 249 | 3.2 | 4.8 | 0.00 | 0.00 | 0.00 | 89 | 1003.6 |
| 20260509112614 | 11 | 266 | 6.4 | 9.7 | 0.00 | 0.00 | 0.00 | 89 | 1003.5 |
| 20260509112112 | 11 | 214 | 8.0 | 11.3 | 0.00 | 0.00 | 0.00 | 89 | 1003.2 |
| 20260509111609 | 11 | 213 | 3.2 | 3.2 | 0.00 | 0.00 | 0.00 | 89 | 1003.1 |
| 20260509111106 | 11 | 229 | 8.0 | 9.7 | 0.00 | 0.00 | 0.00 | 89 | 1003.3 |
| 20260509110603 | 11 | 247 | 4.8 | 4.8 | 0.00 | 0.00 | 0.00 | 89 | 1003.2 |
| 20260509110100 | 11 | 235 | 6.4 | 9.7 | 0.00 | 0.00 | 0.00 | 89 | 1003.3 |
| 20260509105558 | 11 | 244 | 4.8 | 9.7 | 0.00 | 0.00 | 0.00 | 89 | 1003.2 |
| 20260509105055 | 11 | 215 | 4.8 | 9.7 | 0.00 | 0.00 | 0.00 | 89 | 1003.0 |
| 20260509104552 | 11 | 232 | 6.4 | 9.7 | 0.00 | 0.00 | 0.00 | 89 | 1003.3 |
| 20260509104049 | 11 | 230 | 3.2 | 8.0 | 0.00 | 0.00 | 0.00 | 89 | 1003.2 |
| 20260509103547 | 11 | 215 | 4.8 | 8.0 | 0.00 | 0.00 | 0.00 | 89 | 1003.2 |
| 20260509103045 | 11 | 222 | 4.8 | 8.0 | 0.00 | 0.00 | 0.00 | 88 | 1003.1 |
| 20260509102542 | 11 | 229 | 4.8 | 4.8 | 0.00 | 0.00 | 0.00 | 88 | 1003.3 |
| 20260509102038 | 11 | 241 | 4.8 | 4.8 | 0.00 | 0.00 | 0.00 | 88 | 1003.3 |
| 20260509101535 | 11 | 226 | 3.2 | 4.8 | 0.00 | 0.00 | 0.00 | 88 | 1003.4 |
| 20260509101032 | 11 | 227 | 1.6 | 1.6 | 0.00 | 0.00 | 0.00 | 88 | 1003.2 |
| 20260509100529 | 12 | 242 | 6.4 | 8.0 | 0.00 | 0.00 | 0.00 | 87 | 1003.5 |
| 20260509100026 | 12 | 228 | 6.4 | 8.0 | 0.00 | 0.00 | 0.00 | 87 | 1003.7 |
| 20260509095523 | 12 | 265 | 3.2 | 4.8 | 0.00 | 0.00 | 0.00 | 87 | 1003.5 |
| 20260509095020 | 12 | 225 | 6.4 | 8.0 | 0.00 | 0.00 | 0.00 | 88 | 1003.4 |
| 20260509094516 | 12 | 251 | 4.8 | 4.8 | 0.00 | 0.00 | 0.00 | 87 | 1003.5 |
| 20260509094014 | 12 | 209 | 8.0 | 11.3 | 0.00 | 0.00 | 0.00 | 87 | 1003.7 |
| 20260509093512 | 12 | 230 | 4.8 | 4.8 | 0.00 | 0.00 | 0.00 | 87 | 1003.7 |
| 20260509093009 | 12 | 237 | 3.2 | 4.8 | 0.00 | 0.00 | 0.00 | 87 | 1003.6 |
| 20260509092507 | 12 | 197 | 4.8 | 4.8 | 0.00 | 0.00 | 0.00 | 87 | 1003.6 |
| 20260509092005 | 12 | 202 | 1.6 | 3.2 | 0.00 | 0.00 | 0.00 | 87 | 1004.0 |
| 20260509091502 | 12 | 238 | 4.8 | 9.7 | 0.00 | 0.00 | 0.00 | 87 | 1004.0 |
| 20260509090959 | 12 | 218 | 9.7 | 11.3 | 0.00 | 0.00 | 0.00 | 87 | 1003.9 |
| 20260509090456 | 12 | 243 | 8.0 | 9.7 | 0.00 | 0.00 | 0.00 | 86 | 1004.1 |
| 20260509085953 | 12 | 224 | 6.4 | 9.7 | 0.00 | 0.00 | 0.00 | 86 | 1004.1 |
| 20260509085450 | 12 | 228 | 8.0 | 11.3 | 0.00 | 0.00 | 0.00 | 86 | 1004.2 |
| 20260509084946 | 12 | 228 | 4.8 | 8.0 | 0.00 | 0.00 | 0.00 | 86 | 1004.2 |
| 20260509084443 | 12 | 242 | 4.8 | 4.8 | 0.00 | 0.00 | 0.00 | 86 | 1004.1 |
| 20260509083941 | 12 | 224 | 6.4 | 8.0 | 0.00 | 0.00 | 0.00 | 86 | 1003.9 |
| 20260509083438 | 12 | 265 | 4.8 | 4.8 | 0.00 | 0.00 | 0.00 | 86 | 1004.1 |
| 20260509082929 | 12 | 227 | 4.8 | 8.0 | 0.00 | 0.00 | 0.00 | 85 | 1004.1 |
| 20260509082426 | 12 | 222 | 6.4 | 9.7 | 0.00 | 0.00 | 0.00 | 85 | 1004.0 |
| 20260509081923 | 12 | 225 | 8.0 | 11.3 | 0.00 | 0.00 | 0.00 | 85 | 1004.0 |
| 20260509081420 | 12 | 229 | 6.4 | 8.0 | 0.00 | 0.00 | 0.00 | 85 | 1003.7 |
| 20260509080917 | 12 | 227 | 8.0 | 12.9 | 0.00 | 0.00 | 0.00 | 84 | 1003.9 |
| 20260509080415 | 12 | 213 | 11.3 | 12.9 | 0.00 | 0.00 | 0.00 | 84 | 1004.0 |
| 20260509075913 | 12 | 234 | 1.6 | 1.6 | 0.00 | 0.00 | 0.00 | 84 | 1003.9 |
| 20260509075410 | 12 | 228 | 1.6 | 3.2 | 0.00 | 0.00 | 0.00 | 84 | 1004.0 |
| 20260509074907 | 12 | 230 | 4.8 | 4.8 | 0.00 | 0.00 | 0.00 | 84 | 1004.0 |
| 20260509074405 | 12 | 225 | 6.4 | 9.7 | 0.00 | 0.00 | 0.00 | 83 | 1004.0 |
| 20260509073901 | 12 | 237 | 4.8 | 8.0 | 0.00 | 0.00 | 0.00 | 83 | 1004.3 |
| 20260509073358 | 12 | 215 | 8.0 | 9.7 | 0.00 | 0.00 | 0.00 | 83 | 1004.0 |
| 20260509072855 | 12 | 244 | 4.8 | 4.8 | 0.00 | 0.00 | 0.00 | 83 | 1004.3 |
| 20260509072351 | 12 | 235 | 4.8 | 4.8 | 0.00 | 0.00 | 0.00 | 82 | 1004.4 |
| 20260509071848 | 12 | 234 | 4.8 | 4.8 | 0.00 | 0.00 | 0.00 | 82 | 1004.4 |
| 20260509071345 | 12 | 239 | 8.0 | 9.7 | 0.00 | 0.00 | 0.00 | 82 | 1004.6 |
| 20260509070842 | 12 | 247 | 4.8 | 4.8 | 0.00 | 0.00 | 0.00 | 82 | 1004.6 |
| 20260509070339 | 12 | 254 | 4.8 | 8.0 | 0.00 | 0.00 | 0.00 | 82 | 1004.6 |
| 20260509065835 | 12 | 225 | 4.8 | 8.0 | 0.00 | 0.00 | 0.00 | 82 | 1004.6 |
| 20260509065331 | 12 | 207 | 6.4 | 9.7 | 0.00 | 0.00 | 0.00 | 82 | 1004.7 |
| 20260509064827 | 12 | 226 | 3.2 | 3.2 | 0.00 | 0.00 | 0.00 | 82 | 1004.9 |
| 20260509064325 | 12 | 225 | 6.4 | 8.0 | 0.00 | 0.00 | 0.00 | 82 | 1004.6 |
| 20260509063822 | 12 | 228 | 6.4 | 8.0 | 0.00 | 0.00 | 0.00 | 82 | 1004.7 |
| 20260509063318 | 12 | 231 | 3.2 | 3.2 | 0.00 | 0.00 | 0.00 | 82 | 1004.9 |
| 20260509062815 | 12 | 217 | 6.4 | 8.0 | 0.00 | 0.00 | 0.00 | 82 | 1004.8 |
| 20260509062312 | 13 | 232 | 4.8 | 4.8 | 0.00 | 0.00 | 0.00 | 82 | 1004.9 |
| 20260509061810 | 13 | 210 | 6.4 | 9.7 | 0.00 | 0.00 | 0.00 | 82 | 1005.1 |
| 20260509061308 | 13 | 187 | 4.8 | 4.8 | 0.00 | 0.00 | 0.00 | 82 | 1005.0 |
| 20260509060804 | 13 | 236 | 4.8 | 9.7 | 0.00 | 0.00 | 0.00 | 82 | 1005.2 |
| 20260509060301 | 13 | 238 | 6.4 | 8.0 | 0.00 | 0.00 | 0.00 | 82 | 1005.3 |
| 20260509055757 | 13 | 204 | 8.0 | 11.3 | 0.00 | 0.00 | 0.00 | 81 | 1005.3 |
| 20260509055253 | 13 | 224 | 3.2 | 4.8 | 0.00 | 0.00 | 0.00 | 81 | 1005.0 |
| 20260509054750 | 13 | 270 | 6.4 | 8.0 | 0.00 | 0.00 | 0.00 | 81 | 1005.4 |
| 20260509054247 | 13 | 247 | 4.8 | 8.0 | 0.00 | 0.00 | 0.00 | 81 | 1005.1 |
| 20260509053745 | 13 | 259 | 4.8 | 4.8 | 0.00 | 0.00 | 0.00 | 81 | 1005.3 |
| 20260509053242 | 13 | 221 | 3.2 | 3.2 | 0.00 | 0.00 | 0.00 | 81 | 1005.0 |
| 20260509052740 | 13 | 238 | 6.4 | 9.7 | 0.00 | 0.00 | 0.00 | 80 | 1005.1 |
| 20260509052237 | 13 | 225 | 8.0 | 9.7 | 0.00 | 0.00 | 0.00 | 80 | 1005.2 |
| 20260509051735 | 13 | 232 | 8.0 | 11.3 | 0.00 | 0.00 | 0.00 | 80 | 1005.2 |
| 20260509051233 | 13 | 241 | 8.0 | 12.9 | 0.00 | 0.00 | 0.00 | 79 | 1005.2 |
| 20260509050729 | 13 | 230 | 8.0 | 9.7 | 0.00 | 0.00 | 0.00 | 79 | 1005.4 |
| 20260509050225 | 13 | 248 | 6.4 | 8.0 | 0.00 | 0.00 | 0.00 | 78 | 1005.2 |
| 20260509045722 | 13 | 248 | 6.4 | 9.7 | 0.00 | 0.00 | 0.00 | 78 | 1005.1 |
| 20260509045219 | 13 | 228 | 11.3 | 14.5 | 0.00 | 0.00 | 0.00 | 78 | 1005.3 |
| 20260509044716 | 13 | 225 | 6.4 | 9.7 | 0.00 | 0.00 | 0.00 | 77 | 1005.4 |
| 20260509044214 | 13 | 227 | 6.4 | 8.0 | 0.00 | 0.00 | 0.00 | 77 | 1005.5 |
| 20260509043710 | 14 | 195 | 6.4 | 9.7 | 0.00 | 0.00 | 0.00 | 76 | 1005.4 |
| 20260509043206 | 14 | 239 | 4.8 | 4.8 | 0.00 | 0.00 | 0.00 | 76 | 1005.2 |
| 20260509042703 | 14 | 186 | 9.7 | 12.9 | 0.00 | 0.00 | 0.00 | 75 | 1005.3 |
| 20260509042158 | 14 | 213 | 4.8 | 8.0 | 0.00 | 0.00 | 0.00 | 74 | 1005.6 |
| 20260509041655 | 14 | 242 | 12.9 | 14.5 | 0.00 | 0.00 | 0.00 | 74 | 1005.4 |
| 20260509041153 | 14 | 235 | 8.0 | 11.3 | 0.00 | 0.00 | 0.00 | 73 | 1005.4 |
| 20260509040651 | 14 | 215 | 4.8 | 8.0 | 0.00 | 0.00 | 0.00 | 72 | 1005.5 |
| 20260509040148 | 15 | 216 | 8.0 | 9.7 | 0.00 | 0.00 | 0.00 | 72 | 1005.6 |
| 20260509035644 | 15 | 241 | 8.0 | 9.7 | 0.00 | 0.00 | 0.00 | 71 | 1005.5 |
| 20260509035141 | 15 | 222 | 3.2 | 3.2 | 0.00 | 0.00 | 0.00 | 71 | 1005.8 |
| 20260509034639 | 15 | 208 | 6.4 | 9.7 | 0.00 | 0.00 | 0.00 | 71 | 1005.4 |
| 20260509034136 | 15 | 200 | 8.0 | 11.3 | 0.00 | 0.00 | 0.00 | 71 | 1005.5 |
| 20260509033633 | 14 | 233 | 3.2 | 4.8 | 0.00 | 0.00 | 0.00 | 72 | 1005.8 |
| 20260509033130 | 14 | 235 | 3.2 | 3.2 | 0.00 | 0.00 | 0.00 | 72 | 1005.6 |
| 20260509032627 | 14 | 216 | 4.8 | 8.0 | 0.00 | 0.00 | 0.00 | 72 | 1005.4 |
| 20260509032124 | 14 | 194 | 8.0 | 9.7 | 0.00 | 0.00 | 0.00 | 71 | 1005.5 |
| 20260509031622 | 14 | 238 | 3.2 | 3.2 | 0.00 | 0.00 | 0.00 | 71 | 1005.8 |
| 20260509031119 | 13 | 195 | 4.8 | 4.8 | 0.00 | 0.00 | 0.00 | 71 | 1005.4 |
| 20260509030617 | 13 | 172 | 3.2 | 4.8 | 0.00 | 0.00 | 0.00 | 72 | 1005.5 |
| 20260509030114 | 13 | 188 | 9.7 | 12.9 | 0.00 | 0.00 | 0.00 | 72 | 1005.6 |
| 20260509025610 | 13 | 189 | 4.8 | 8.0 | 0.00 | 0.00 | 0.00 | 71 | 1005.4 |
| 20260509025106 | 13 | 213 | 6.4 | 8.0 | 0.00 | 0.00 | 0.00 | 71 | 1005.9 |
| 20260509024601 | 13 | 154 | 3.2 | 3.2 | 0.00 | 0.00 | 0.00 | 70 | 1005.9 |
| 20260509024058 | 13 | 207 | 6.4 | 8.0 | 0.00 | 0.00 | 0.00 | 70 | 1005.8 |
| 20260509023556 | 13 | 176 | 6.4 | 8.0 | 0.00 | 0.00 | 0.00 | 69 | 1006.0 |
| 20260509023052 | 13 | 175 | 6.4 | 9.7 | 0.00 | 0.00 | 0.00 | 68 | 1005.9 |
| 20260509022548 | 13 | 173 | 3.2 | 4.8 | 0.00 | 0.00 | 0.00 | 68 | 1006.0 |
| 20260509022047 | 13 | 199 | 4.8 | 8.0 | 0.00 | 0.00 | 0.00 | 67 | 1005.9 |
| 20260509021543 | 13 | 195 | 6.4 | 9.7 | 0.00 | 0.00 | 0.00 | 67 | 1006.0 |
| 20260509021040 | 13 | 171 | 6.4 | 8.0 | 0.00 | 0.00 | 0.00 | 66 | 1005.8 |
| 20260509020539 | 13 | 211 | 1.6 | 3.2 | 0.00 | 0.00 | 0.00 | 66 | 1005.6 |
| 20260509020035 | 13 | 194 | 4.8 | 4.8 | 0.00 | 0.00 | 0.00 | 66 | 1005.6 |
| 20260509015534 | 13 | 186 | 3.2 | 3.2 | 0.00 | 0.00 | 0.00 | 65 | 1005.6 |
| 20260509015031 | 13 | 225 | 1.6 | 1.6 | 0.00 | 0.00 | 0.00 | 65 | 1005.5 |
| 20260509014528 | 13 | 199 | 3.2 | 3.2 | 0.00 | 0.00 | 0.00 | 65 | 1005.6 |
| 20260509014025 | 13 | 203 | 4.8 | 4.8 | 0.00 | 0.00 | 0.00 | 65 | 1005.6 |
| 20260509013522 | 13 | 200 | 3.2 | 3.2 | 0.00 | 0.00 | 0.00 | 65 | 1005.8 |
| 20260509013017 | 13 | 186 | 9.7 | 11.3 | 0.00 | 0.00 | 0.00 | 65 | 1005.9 |
| 20260509012514 | 13 | 170 | 8.0 | 12.9 | 0.00 | 0.00 | 0.00 | 65 | 1005.9 |
| 20260509012011 | 13 | 183 | 8.0 | 9.7 | 0.00 | 0.00 | 0.00 | 65 | 1005.6 |
| 20260509011509 | 13 | 190 | 3.2 | 3.2 | 0.00 | 0.00 | 0.00 | 65 | 1005.4 |
| 20260509011006 | 13 | 188 | 4.8 | 8.0 | 0.00 | 0.00 | 0.00 | 64 | 1005.5 |
| 20260509010504 | 13 | 163 | 6.4 | 11.3 | 0.00 | 0.00 | 0.00 | 64 | 1005.5 |
| 20260509010000 | 13 | 189 | 4.8 | 8.0 | 0.00 | 0.00 | 0.00 | 64 | 1005.8 |
| 20260509005458 | 13 | 103 | 6.4 | 8.0 | 0.00 | 0.00 | 0.00 | 63 | 1005.6 |
| 20260509004957 | 13 | 131 | 4.8 | 8.0 | 0.00 | 0.00 | 0.00 | 62 | 1005.5 |
| 20260509004454 | 13 | 181 | 3.2 | 4.8 | 0.00 | 0.00 | 0.00 | 62 | 1005.6 |
| 20260509003952 | 14 | 220 | 6.4 | 9.7 | 0.00 | 0.00 | 0.00 | 62 | 1005.8 |
| 20260509003450 | 14 | 190 | 4.8 | 4.8 | 0.00 | 0.00 | 0.00 | 61 | 1005.8 |
| 20260509002946 | 14 | 188 | 6.4 | 8.0 | 0.00 | 0.00 | 0.00 | 61 | 1005.5 |
| 20260509002444 | 14 | 193 | 3.2 | 3.2 | 0.00 | 0.00 | 0.00 | 61 | 1005.9 |
| 20260509001941 | 14 | 149 | 6.4 | 9.7 | 0.00 | 0.00 | 0.00 | 60 | 1005.9 |
| 20260509001438 | 14 | 209 | 4.8 | 8.0 | 0.00 | 0.00 | 0.00 | 61 | 1005.8 |
| 20260509000935 | 15 | 184 | 1.6 | 3.2 | 0.00 | 0.00 | 0.00 | 61 | 1005.8 |
| 20260509000433 | 15 | 200 | 1.6 | 3.2 | 0.00 | 0.00 | 0.00 | 60 | 1006.0 |
| 20260508235928 | 15 | 197 | 3.2 | 3.2 | 0.00 | 0.00 | 0.00 | 60 | 1006.0 |
| 20260508235426 | 15 | 217 | 4.8 | 4.8 | 0.00 | 0.00 | 0.00 | 59 | 1006.0 |
| 20260508234922 | 16 | 240 | 0.0 | 0.0 | 0.00 | 0.00 | 0.00 | 59 | 1006.0 |
| 20260508234420 | 16 | 248 | 0.0 | 1.6 | 0.00 | 0.00 | 0.00 | 59 | 1005.8 |
| 20260508233917 | 16 | 170 | 3.2 | 3.2 | 0.00 | 0.00 | 0.00 | 59 | 1005.8 |
| 20260508233417 | 16 | 176 | 3.2 | 3.2 | 0.00 | 0.00 | 0.00 | 59 | 1005.9 |
| 20260508232913 | 16 | 51 | 0.0 | 1.6 | 0.00 | 0.00 | 0.00 | 59 | 1005.9 |
| 20260508232410 | 16 | 255 | 0.0 | 0.0 | 0.00 | 0.00 | 0.00 | 58 | 1006.1 |
| 20260508231908 | 16 | 166 | 1.6 | 1.6 | 0.00 | 0.00 | 0.00 | 59 | 1006.0 |
| 20260508231404 | 16 | 174 | 3.2 | 3.2 | 0.00 | 0.00 | 0.00 | 59 | 1006.2 |
| 20260508230901 | 16 | 190 | 3.2 | 3.2 | 0.00 | 0.00 | 0.00 | 59 | 1005.8 |
| 20260508230358 | 16 | 106 | 0.0 | 1.6 | 0.00 | 0.00 | 0.00 | 59 | 1005.9 |
| 20260508225855 | 16 | 230 | 0.0 | 0.0 | 0.00 | 0.00 | 0.00 | 59 | 1006.1 |
| 20260508225351 | 16 | 175 | 3.2 | 4.8 | 0.00 | 0.00 | 0.00 | 58 | 1006.0 |
| 20260508224849 | 16 | 178 | 3.2 | 4.8 | 0.00 | 0.00 | 0.00 | 58 | 1006.4 |
| 20260508224347 | 16 | 218 | 1.6 | 1.6 | 0.00 | 0.00 | 0.00 | 59 | 1006.2 |
| 20260508223844 | 16 | 241 | 1.6 | 1.6 | 0.00 | 0.00 | 0.00 | 58 | 1006.2 |
| 20260508223341 | 17 | 213 | 1.6 | 1.6 | 0.00 | 0.00 | 0.00 | 58 | 1006.2 |
| 20260508222839 | 16 | 241 | 3.2 | 4.8 | 0.00 | 0.00 | 0.00 | 59 | 1006.3 |
| 20260508222336 | 16 | 168 | 6.4 | 9.7 | 0.00 | 0.00 | 0.00 | 61 | 1006.3 |
| 20260508221832 | 16 | 204 | 3.2 | 3.2 | 0.00 | 0.00 | 0.00 | 60 | 1006.2 |
| 20260508221328 | 16 | 60 | 1.6 | 1.6 | 0.00 | 0.00 | 0.00 | 60 | 1006.4 |
| 20260508220825 | 16 | 100 | 1.6 | 1.6 | 0.00 | 0.00 | 0.00 | 60 | 1006.2 |
| 20260508220321 | 15 | 79 | 4.8 | 4.8 | 0.00 | 0.00 | 0.00 | 62 | 1006.4 |
| 20260508215818 | 15 | 49 | 8.0 | 11.3 | 0.00 | 0.00 | 0.00 | 62 | 1006.5 |
| 20260508215314 | 16 | 29 | 4.8 | 4.8 | 0.00 | 0.00 | 0.00 | 62 | 1006.6 |
| 20260508214811 | 16 | 47 | 1.6 | 3.2 | 0.00 | 0.00 | 0.00 | 62 | 1006.4 |
| 20260508214308 | 16 | 72 | 4.8 | 8.0 | 0.00 | 0.00 | 0.00 | 63 | 1006.5 |
| 20260508213805 | 17 | 87 | 4.8 | 9.7 | 0.00 | 0.00 | 0.00 | 60 | 1006.5 |
| 20260508213302 | 17 | 83 | 3.2 | 3.2 | 0.00 | 0.00 | 0.00 | 60 | 1006.6 |
| 20260508212758 | 16 | 71 | 3.2 | 4.8 | 0.00 | 0.00 | 0.00 | 62 | 1006.6 |
| 20260508212254 | 16 | 30 | 4.8 | 4.8 | 0.00 | 0.00 | 0.00 | 62 | 1006.6 |
| 20260508211750 | 16 | 24 | 3.2 | 3.2 | 0.00 | 0.00 | 0.00 | 61 | 1006.5 |
| 20260508211246 | 16 | 106 | 4.8 | 8.0 | 0.00 | 0.00 | 0.00 | 63 | 1006.4 |
| 20260508210744 | 16 | 34 | 6.4 | 9.7 | 0.00 | 0.00 | 0.00 | 62 | 1006.8 |
| 20260508210241 | 16 | 27 | 6.4 | 9.7 | 0.00 | 0.00 | 0.00 | 62 | 1006.4 |
| 20260508205737 | 16 | 29 | 4.8 | 8.0 | 0.00 | 0.00 | 0.00 | 64 | 1006.7 |
| 20260508205234 | 16 | 42 | 8.0 | 11.3 | 0.00 | 0.00 | 0.00 | 62 | 1006.7 |
| 20260508204730 | 17 | 75 | 8.0 | 11.3 | 0.00 | 0.00 | 0.00 | 59 | 1006.8 |
| 20260508204227 | 18 | 48 | 4.8 | 4.8 | 0.00 | 0.00 | 0.00 | 58 | 1006.7 |
| 20260508203723 | 17 | 169 | 4.8 | 4.8 | 0.00 | 0.00 | 0.00 | 61 | 1006.9 |
| 20260508203219 | 17 | 172 | 14.5 | 17.7 | 0.00 | 0.00 | 0.00 | 61 | 1006.9 |
| 20260508202715 | 17 | 191 | 8.0 | 11.3 | 0.00 | 0.00 | 0.00 | 58 | 1007.0 |
| 20260508202213 | 17 | 145 | 4.8 | 4.8 | 0.00 | 0.00 | 0.00 | 57 | 1007.0 |
| 20260508201709 | 18 | 303 | 1.6 | 1.6 | 0.00 | 0.00 | 0.00 | 55 | 1007.2 |
| 20260508201206 | 18 | 171 | 6.4 | 11.3 | 0.00 | 0.00 | 0.00 | 52 | 1007.1 |
| 20260508200703 | 18 | 171 | 4.8 | 4.8 | 0.00 | 0.00 | 0.00 | 52 | 1007.3 |
| 20260508200159 | 17 | 53 | 1.6 | 1.6 | 0.00 | 0.00 | 0.00 | 54 | 1007.5 |
| 20260508195656 | 17 | 347 | 0.0 | 1.6 | 0.00 | 0.00 | 0.00 | 53 | 1007.5 |
| 20260508195152 | 17 | 201 | 4.8 | 4.8 | 0.00 | 0.00 | 0.00 | 54 | 1007.4 |
| 20260508194649 | 17 | 68 | 4.8 | 8.0 | 0.00 | 0.00 | 0.00 | 56 | 1007.6 |
| 20260508194146 | 18 | 50 | 6.4 | 8.0 | 0.00 | 0.00 | 0.00 | 54 | 1007.6 |
| 20260508193642 | 17 | 65 | 6.4 | 9.7 | 0.00 | 0.00 | 0.00 | 54 | 1007.8 |
| 20260508193139 | 17 | 92 | 6.4 | 9.7 | 0.00 | 0.00 | 0.00 | 53 | 1007.6 |
| 20260508192636 | 17 | 60 | 8.0 | 9.7 | 0.00 | 0.00 | 0.00 | 52 | 1007.8 |
| 20260508192133 | 17 | 69 | 4.8 | 8.0 | 0.00 | 0.00 | 0.00 | 52 | 1007.8 |
| 20260508191630 | 17 | 112 | 6.4 | 8.0 | 0.00 | 0.00 | 0.00 | 54 | 1008.0 |
| 20260508191126 | 17 | 314 | 1.6 | 3.2 | 0.00 | 0.00 | 0.00 | 53 | 1008.1 |
| 20260508190624 | 17 | 174 | 1.6 | 3.2 | 0.00 | 0.00 | 0.00 | 55 | 1008.1 |
| 20260508190120 | 17 | 75 | 6.4 | 8.0 | 0.00 | 0.00 | 0.00 | 56 | 1008.0 |
| 20260508185617 | 17 | 40 | 8.0 | 11.3 | 0.00 | 0.00 | 0.00 | 58 | 1008.0 |
| 20260508185115 | 17 | 60 | 4.8 | 8.0 | 0.00 | 0.00 | 0.00 | 55 | 1008.2 |
| 20260508184612 | 17 | 64 | 6.4 | 11.3 | 0.00 | 0.00 | 0.00 | 54 | 1008.2 |
| 20260508184109 | 18 | 144 | 1.6 | 3.2 | 0.00 | 0.00 | 0.00 | 53 | 1008.3 |
| 20260508183605 | 17 | 271 | 1.6 | 3.2 | 0.00 | 0.00 | 0.00 | 52 | 1008.3 |
| 20260508183101 | 17 | 55 | 6.4 | 9.7 | 0.00 | 0.00 | 0.00 | 51 | 1008.4 |
| 20260508182558 | 17 | 173 | 4.8 | 4.8 | 0.00 | 0.00 | 0.00 | 51 | 1008.7 |
| 20260508182055 | 17 | 84 | 4.8 | 4.8 | 0.00 | 0.00 | 0.00 | 51 | 1008.5 |
| 20260508181550 | 16 | 121 | 6.4 | 8.0 | 0.00 | 0.00 | 0.00 | 52 | 1008.2 |
| 20260508181048 | 16 | 78 | 6.4 | 8.0 | 0.00 | 0.00 | 0.00 | 50 | 1008.5 |
| 20260508180544 | 18 | 125 | 4.8 | 9.7 | 0.00 | 0.00 | 0.00 | 47 | 1008.5 |
| 20260508180041 | 17 | 203 | 4.8 | 9.7 | 0.00 | 0.00 | 0.00 | 46 | 1008.4 |
| 20260508175538 | 17 | 356 | 3.2 | 4.8 | 0.00 | 0.00 | 0.00 | 47 | 1008.8 |
| 20260508175035 | 17 | 232 | 3.2 | 3.2 | 0.00 | 0.00 | 0.00 | 48 | 1009.0 |
| 20260508174533 | 17 | 19 | 3.2 | 4.8 | 0.00 | 0.00 | 0.00 | 47 | 1008.9 |
| 20260508174029 | 17 | 115 | 6.4 | 9.7 | 0.00 | 0.00 | 0.00 | 47 | 1009.2 |
| 20260508173526 | 18 | 291 | 1.6 | 1.6 | 0.00 | 0.00 | 0.00 | 45 | 1009.3 |
| 20260508173022 | 17 | 193 | 1.6 | 3.2 | 0.00 | 0.00 | 0.00 | 46 | 1009.2 |
| 20260508172519 | 17 | 196 | 3.2 | 4.8 | 0.00 | 0.00 | 0.00 | 41 | 1009.3 |
| 20260508172016 | 17 | 84 | 6.4 | 9.7 | 0.00 | 0.00 | 0.00 | 40 | 1009.4 |
| 20260508171512 | 17 | 171 | 3.2 | 8.0 | 0.00 | 0.00 | 0.00 | 39 | 1009.5 |
| 20260508171009 | 17 | 154 | 6.4 | 8.0 | 0.00 | 0.00 | 0.00 | 42 | 1009.4 |
| 20260508170506 | 17 | 49 | 4.8 | 4.8 | 0.00 | 0.00 | 0.00 | 39 | 1009.5 |
| 20260508170004 | 17 | 185 | 1.6 | 3.2 | 0.00 | 0.00 | 0.00 | 34 | 1009.6 |
| 20260508165501 | 17 | 66 | 6.4 | 9.7 | 0.00 | 0.00 | 0.00 | 34 | 1009.7 |
| 20260508164956 | 17 | 34 | 1.6 | 1.6 | 0.00 | 0.00 | 0.00 | 35 | 1009.8 |
| 20260508164454 | 17 | 17 | 3.2 | 3.2 | 0.00 | 0.00 | 0.00 | 33 | 1009.9 |
| 20260508163950 | 17 | 131 | 1.6 | 1.6 | 0.00 | 0.00 | 0.00 | 34 | 1009.8 |
| 20260508163448 | 16 | 113 | 8.0 | 9.7 | 0.00 | 0.00 | 0.00 | 38 | 1010.2 |
| 20260508162944 | 16 | 168 | 6.4 | 9.7 | 0.00 | 0.00 | 0.00 | 45 | 1010.1 |
| 20260508162442 | 17 | 201 | 6.4 | 8.0 | 0.00 | 0.00 | 0.00 | 46 | 1010.1 |
| 20260508161938 | 17 | 338 | 1.6 | 1.6 | 0.00 | 0.00 | 0.00 | 45 | 1010.2 |
| 20260508161435 | 17 | 178 | 9.7 | 12.9 | 0.00 | 0.00 | 0.00 | 42 | 1010.1 |
| 20260508160932 | 17 | 178 | 6.4 | 8.0 | 0.00 | 0.00 | 0.00 | 48 | 1010.1 |
| 20260508160431 | 15 | 199 | 4.8 | 4.8 | 0.00 | 0.00 | 0.00 | 52 | 1010.2 |
| 20260508155927 | 17 | 134 | 4.8 | 4.8 | 0.00 | 0.00 | 0.00 | 50 | 1010.2 |
| 20260508155424 | 17 | 29 | 1.6 | 1.6 | 0.00 | 0.00 | 0.00 | 48 | 1010.3 |
| 20260508154921 | 16 | 262 | 1.6 | 1.6 | 0.00 | 0.00 | 0.00 | 48 | 1010.2 |
| 20260508154419 | 16 | 222 | 3.2 | 3.2 | 0.00 | 0.00 | 0.00 | 49 | 1010.3 |
| 20260508153915 | 16 | 223 | 3.2 | 3.2 | 0.00 | 0.00 | 0.00 | 51 | 1010.5 |
| 20260508153412 | 16 | 203 | 1.6 | 3.2 | 0.00 | 0.00 | 0.00 | 49 | 1010.5 |
| 20260508152908 | 16 | 215 | 6.4 | 8.0 | 0.00 | 0.00 | 0.00 | 52 | 1010.7 |
| 20260508152405 | 16 | 355 | 0.0 | 0.0 | 0.00 | 0.00 | 0.00 | 55 | 1010.4 |
| 20260508151902 | 16 | 213 | 3.2 | 3.2 | 0.00 | 0.00 | 0.00 | 55 | 1010.7 |
| 20260508151359 | 16 | 151 | 4.8 | 4.8 | 0.00 | 0.00 | 0.00 | 50 | 1010.7 |
| 20260508150855 | 15 | 302 | 3.2 | 3.2 | 0.00 | 0.00 | 0.00 | 55 | 1010.7 |
| 20260508150352 | 15 | 247 | 3.2 | 3.2 | 0.00 | 0.00 | 0.00 | 55 | 1011.0 |
| 20260508145848 | 15 | 191 | 3.2 | 3.2 | 0.00 | 0.00 | 0.00 | 55 | 1010.6 |
| 20260508145344 | 15 | 194 | 3.2 | 4.8 | 0.00 | 0.00 | 0.00 | 55 | 1010.5 |
| 20260508144841 | 14 | 235 | 1.6 | 1.6 | 0.00 | 0.00 | 0.00 | 57 | 1010.8 |
| 20260508144339 | 15 | 176 | 3.2 | 4.8 | 0.00 | 0.00 | 0.00 | 57 | 1010.6 |
| 20260508143836 | 14 | 199 | 3.2 | 4.8 | 0.00 | 0.00 | 0.00 | 59 | 1010.8 |
| 20260508143333 | 13 | 203 | 8.0 | 9.7 | 0.00 | 0.00 | 0.00 | 62 | 1010.8 |
| 20260508142830 | 13 | 213 | 4.8 | 8.0 | 0.00 | 0.00 | 0.00 | 62 | 1010.8 |
| 20260508142327 | 13 | 30 | 4.8 | 4.8 | 0.00 | 0.00 | 0.00 | 61 | 1010.7 |
| 20260508141823 | 12 | 209 | 4.8 | 4.8 | 0.00 | 0.00 | 0.00 | 63 | 1010.8 |
| 20260508141320 | 13 | 184 | 1.6 | 3.2 | 0.00 | 0.00 | 0.00 | 66 | 1011.0 |
| 20260508140817 | 13 | 218 | 3.2 | 4.8 | 0.00 | 0.00 | 0.00 | 67 | 1010.7 |
| 20260508140314 | 13 | 186 | 0.0 | 0.0 | 0.00 | 0.00 | 0.00 | 68 | 1010.8 |
| 20260508135810 | 13 | 172 | 3.2 | 3.2 | 0.00 | 0.00 | 0.00 | 68 | 1010.7 |
| 20260508135307 | 13 | 139 | 0.0 | 0.0 | 0.00 | 0.00 | 0.00 | 70 | 1010.7 |
| 20260508134803 | 13 | 161 | 1.6 | 1.6 | 0.00 | 0.00 | 0.00 | 70 | 1010.8 |
| 20260508134300 | 12 | 190 | 3.2 | 3.2 | 0.00 | 0.00 | 0.00 | 72 | 1010.7 |
| 20260508133756 | 12 | 179 | 1.6 | 1.6 | 0.00 | 0.00 | 0.00 | 72 | 1010.6 |
| 20260508133253 | 11 | 147 | 1.6 | 1.6 | 0.00 | 0.00 | 0.00 | 73 | 1010.6 |
| 20260508132751 | 11 | 149 | 3.2 | 3.2 | 0.00 | 0.00 | 0.00 | 73 | 1010.8 |
| 20260508132248 | 11 | 220 | 0.0 | 1.6 | 0.00 | 0.00 | 0.00 | 74 | 1010.9 |
| 20260508131744 | 11 | 173 | 1.6 | 3.2 | 0.00 | 0.00 | 0.00 | 75 | 1010.7 |
| 20260508131240 | 11 | 208 | 3.2 | 3.2 | 0.00 | 0.00 | 0.00 | 78 | 1010.6 |
| 20260508130737 | 10 | 246 | 0.0 | 0.0 | 0.00 | 0.00 | 0.00 | 80 | 1010.7 |
| 20260508130234 | 10 | 229 | 1.6 | 1.6 | 0.00 | 0.00 | 0.00 | 80 | 1011.0 |
| 20260508125729 | 10 | 216 | 3.2 | 3.2 | 0.00 | 0.00 | 0.00 | 80 | 1011.4 |
| 20260508125226 | 10 | 287 | 0.0 | 0.0 | 0.00 | 0.00 | 0.00 | 81 | 1010.9 |
| 20260508124725 | 10 | 291 | 0.0 | 1.6 | 0.00 | 0.00 | 0.00 | 83 | 1011.2 |